createdAt,value
2019-03-29T00:00:04.102Z,14.03
2019-03-29T00:02:36.861Z,14.10
2019-03-29T00:05:06.416Z,13.60
2019-03-29T00:07:39.743Z,12.67
2019-03-29T00:10:06.337Z,14.00
2019-03-29T00:12:35.614Z,14.20
2019-03-29T00:15:04.880Z,14.83
2019-03-29T00:17:34.207Z,14.53
2019-03-29T00:20:06.168Z,14.00
2019-03-29T00:22:34.667Z,13.53
2019-03-29T00:25:03.910Z,13.43
2019-03-29T00:27:33.234Z,12.03
2019-03-29T00:30:01.834Z,11.90
2019-03-29T00:32:31.917Z,14.07
2019-03-29T00:35:01.251Z,13.23
2019-03-29T00:37:30.910Z,11.93
2019-03-29T00:40:00.357Z,11.37
2019-03-29T00:42:29.745Z,12.43
2019-03-29T00:44:59.556Z,12.30
2019-03-29T00:47:29.375Z,11.70
2019-03-29T00:49:59.265Z,11.70
2019-03-29T00:52:27.833Z,12.30
2019-03-29T00:54:57.344Z,14.60
2019-03-29T00:57:26.673Z,12.83
2019-03-29T00:59:55.936Z,14.13
2019-03-29T01:02:25.180Z,12.80
2019-03-29T01:04:54.999Z,14.50
2019-03-29T01:07:24.392Z,12.80
2019-03-29T01:09:53.576Z,12.53
2019-03-29T01:12:22.770Z,10.93
2019-03-29T01:14:51.322Z,12.93
2019-03-29T01:17:20.561Z,14.70
2019-03-29T01:19:49.780Z,14.00
2019-03-29T01:22:18.987Z,13.87
2019-03-29T01:24:48.185Z,13.03
2019-03-29T01:27:17.445Z,12.70
2019-03-29T01:29:46.762Z,14.10
2019-03-29T01:32:16.289Z,13.87
2019-03-29T01:34:45.529Z,10.87
2019-03-29T01:37:14.098Z,13.27
2019-03-29T01:39:43.300Z,12.17
2019-03-29T01:42:12.528Z,13.80
2019-03-29T01:44:41.853Z,13.30
2019-03-29T01:47:11.110Z,13.10
2019-03-29T01:49:40.324Z,12.50
2019-03-29T01:52:09.612Z,14.20
2019-03-29T01:54:38.909Z,13.70
2019-03-29T01:57:07.457Z,13.53
2019-03-29T01:59:36.664Z,12.97
2019-03-29T02:02:05.877Z,13.63
2019-03-29T02:04:35.331Z,12.67
2019-03-29T02:07:04.565Z,12.50
2019-03-29T02:09:33.794Z,11.90
2019-03-29T02:12:03.265Z,12.20
2019-03-29T02:14:32.481Z,13.53
2019-03-29T02:17:01.801Z,12.07
2019-03-29T02:19:31.223Z,11.67
2019-03-29T02:22:01.510Z,13.37
2019-03-29T02:24:31.145Z,11.27
2019-03-29T02:27:00.961Z,11.33
2019-03-29T02:29:30.489Z,12.10
2019-03-29T02:31:59.733Z,13.43
2019-03-29T02:34:28.944Z,13.70
2019-03-29T02:36:58.237Z,13.25
2019-03-29T02:39:27.547Z,11.50
2019-03-29T02:41:56.145Z,12.43
2019-03-29T02:44:25.474Z,13.13
2019-03-29T02:46:54.752Z,13.32
2019-03-29T02:49:24.085Z,14.15
2019-03-29T02:51:53.285Z,12.55
2019-03-29T02:54:22.530Z,13.60
2019-03-29T02:56:52.176Z,14.35
2019-03-29T02:59:21.474Z,15.15
2019-03-29T03:01:50.694Z,12.03
2019-03-29T03:04:19.330Z,14.50
2019-03-29T03:06:48.558Z,15.40
2019-03-29T03:09:17.748Z,12.40
2019-03-29T03:11:47.035Z,12.98
2019-03-29T03:14:16.266Z,14.10
2019-03-29T03:16:45.460Z,12.85
2019-03-29T03:19:14.673Z,13.32
2019-03-29T03:21:43.862Z,13.62
2019-03-29T03:24:12.398Z,11.88
2019-03-29T03:26:41.637Z,12.55
2019-03-29T03:29:10.891Z,13.90
2019-03-29T03:31:40.082Z,13.30
2019-03-29T03:34:09.581Z,14.07
2019-03-29T03:36:38.959Z,14.00
2019-03-29T03:39:08.667Z,14.38
2019-03-29T03:41:37.960Z,13.45
2019-03-29T03:44:07.194Z,12.30
2019-03-29T03:46:35.825Z,13.43
2019-03-29T03:49:05.135Z,14.20
2019-03-29T03:51:34.501Z,14.15
2019-03-29T03:54:03.797Z,12.95
2019-03-29T03:56:33.124Z,12.43
2019-03-29T03:59:02.390Z,13.05
2019-03-29T04:01:31.669Z,11.93
2019-03-29T04:04:00.889Z,12.53
2019-03-29T04:06:29.485Z,11.48
2019-03-29T04:08:58.043Z,13.75
2019-03-29T04:11:27.713Z,13.60
2019-03-29T04:13:56.995Z,13.32
2019-03-29T04:16:26.234Z,13.40
2019-03-29T04:18:55.473Z,13.38
2019-03-29T04:21:24.777Z,11.80
2019-03-29T04:23:54.046Z,12.10
2019-03-29T04:26:23.286Z,11.35
2019-03-29T04:29:04.105Z,11.73
2019-03-29T04:31:22.895Z,12.10
2019-03-29T04:33:52.224Z,13.45
2019-03-29T04:36:21.487Z,13.78
2019-03-29T04:38:50.802Z,13.53
2019-03-29T04:41:20.132Z,12.70
2019-03-29T04:43:49.394Z,12.47
2019-03-29T04:46:18.661Z,11.53
2019-03-29T04:48:48.088Z,11.48
2019-03-29T04:51:16.961Z,11.57
2019-03-29T04:53:46.234Z,11.78
2019-03-29T04:56:15.500Z,12.82
2019-03-29T04:58:44.779Z,12.23
2019-03-29T05:01:17.242Z,14.03
2019-03-29T05:03:45.000Z,12.45
2019-03-29T05:06:14.193Z,12.65
2019-03-29T05:08:43.385Z,11.53
2019-03-29T05:11:12.585Z,11.60
2019-03-29T05:13:41.150Z,12.90
2019-03-29T05:16:10.421Z,12.23
2019-03-29T05:18:39.757Z,13.10
2019-03-29T05:21:09.141Z,11.70
2019-03-29T05:23:38.881Z,12.60
2019-03-29T05:26:08.191Z,12.10
2019-03-29T05:28:37.508Z,11.73
2019-03-29T05:31:07.066Z,13.20
2019-03-29T05:33:36.357Z,10.28
2019-03-29T05:36:04.982Z,10.95
2019-03-29T05:38:34.218Z,12.15
2019-03-29T05:41:03.520Z,12.00
2019-03-29T05:43:32.847Z,11.45
2019-03-29T05:46:02.061Z,12.05
2019-03-29T05:48:31.272Z,11.68
2019-03-29T05:51:00.566Z,13.40
2019-03-29T05:53:29.823Z,12.68
2019-03-29T05:55:58.374Z,10.90
2019-03-29T05:58:27.664Z,11.45
2019-03-29T06:00:56.872Z,11.35
2019-03-29T06:03:26.082Z,10.90
2019-03-29T06:05:55.352Z,13.13
2019-03-29T06:08:24.666Z,12.58
2019-03-29T06:10:53.879Z,11.25
2019-03-29T06:13:23.110Z,11.78
2019-03-29T06:15:52.679Z,10.70
2019-03-29T06:18:21.257Z,8.88
2019-03-29T06:20:50.539Z,8.83
2019-03-29T06:23:19.782Z,8.20
2019-03-29T06:25:49.068Z,8.77
2019-03-29T06:28:18.316Z,7.13
2019-03-29T06:30:47.530Z,6.27
2019-03-29T06:33:16.861Z,7.20
2019-03-29T06:35:46.064Z,6.10
2019-03-29T06:38:15.377Z,5.13
2019-03-29T06:40:44.005Z,4.03
2019-03-29T06:43:13.265Z,5.20
2019-03-29T06:45:48.145Z,4.90
2019-03-29T06:48:13.530Z,5.60
2019-03-29T06:50:43.077Z,5.30
2019-03-29T06:53:12.682Z,3.93
2019-03-29T06:55:42.176Z,5.00
2019-03-29T06:58:11.785Z,3.80
2019-03-29T07:00:41.092Z,3.37
2019-03-29T07:03:09.664Z,3.80
2019-03-29T07:05:38.868Z,3.17
2019-03-29T07:08:08.165Z,3.47
2019-03-29T07:10:38.381Z,3.23
2019-03-29T07:13:07.568Z,2.90
2019-03-29T07:15:36.763Z,3.23
2019-03-29T07:18:06.144Z,2.80
2019-03-29T07:20:35.393Z,2.80
2019-03-29T07:23:04.719Z,2.63
2019-03-29T07:25:33.369Z,2.53
2019-03-29T07:28:03.021Z,2.77
2019-03-29T07:30:32.277Z,3.10
2019-03-29T07:33:01.586Z,2.33
2019-03-29T07:35:30.777Z,2.90
2019-03-29T07:37:59.981Z,2.37
2019-03-29T07:40:29.307Z,2.37
2019-03-29T07:42:58.595Z,2.13
2019-03-29T07:45:27.147Z,2.30
2019-03-29T07:47:56.403Z,2.60
2019-03-29T07:50:25.612Z,2.37
2019-03-29T07:52:54.859Z,2.40
2019-03-29T07:55:24.180Z,2.47
2019-03-29T07:57:54.096Z,2.63
2019-03-29T08:00:23.364Z,2.70
2019-03-29T08:02:52.671Z,2.20
2019-03-29T08:05:21.905Z,2.00
2019-03-29T08:07:50.465Z,2.20
2019-03-29T08:10:27.518Z,2.20
2019-03-29T08:12:50.707Z,2.10
2019-03-29T08:15:20.167Z,2.33
2019-03-29T08:17:49.358Z,2.40
2019-03-29T08:20:39.204Z,2.90
2019-03-29T08:22:49.536Z,3.30
2019-03-29T08:25:18.841Z,3.50
2019-03-29T08:27:48.110Z,2.77
2019-03-29T08:30:16.692Z,3.57
2019-03-29T08:32:45.880Z,3.63
2019-03-29T08:35:15.067Z,3.70
2019-03-29T08:37:44.293Z,3.60
2019-03-29T08:40:13.505Z,3.40
2019-03-29T08:42:42.859Z,3.47
2019-03-29T08:45:12.040Z,4.00
2019-03-29T08:47:41.430Z,3.27
2019-03-29T08:50:10.637Z,3.10
2019-03-29T08:52:39.164Z,3.80
2019-03-29T08:55:08.347Z,5.07
2019-03-29T08:57:37.572Z,4.80
2019-03-29T09:00:07.817Z,4.50
2019-03-29T09:02:37.096Z,5.20
2019-03-29T09:05:06.451Z,5.47
2019-03-29T09:07:44.621Z,4.30
2019-03-29T09:10:12.941Z,6.13
2019-03-29T09:12:42.429Z,5.40
2019-03-29T09:15:10.971Z,6.27
2019-03-29T09:17:40.639Z,5.50
2019-03-29T09:20:10.754Z,5.30
2019-03-29T09:22:40.108Z,5.40
2019-03-29T09:25:09.336Z,5.83
2019-03-29T09:27:38.809Z,4.80
2019-03-29T09:30:08.125Z,3.90
2019-03-29T09:32:37.350Z,3.57
2019-03-29T09:35:06.646Z,3.77
2019-03-29T09:37:35.289Z,3.50
2019-03-29T09:40:05.162Z,3.57
2019-03-29T09:42:34.418Z,2.90
2019-03-29T09:45:03.809Z,2.60
2019-03-29T09:47:38.577Z,2.90
2019-03-29T09:50:04.496Z,3.00
2019-03-29T09:52:33.771Z,2.90
2019-03-29T09:55:03.075Z,3.20
2019-03-29T09:57:37.111Z,2.73
2019-03-29T10:00:17.102Z,2.80
2019-03-29T10:02:33.743Z,2.60
2019-03-29T10:05:03.070Z,3.10
2019-03-29T10:07:32.269Z,3.20
2019-03-29T10:10:01.593Z,2.83
2019-03-29T10:12:42.791Z,3.17
2019-03-29T10:15:02.352Z,3.40
2019-03-29T10:17:31.637Z,3.40
2019-03-29T10:20:00.944Z,3.93
2019-03-29T10:22:30.264Z,3.07
2019-03-29T10:25:02.070Z,3.97
2019-03-29T10:27:30.406Z,4.50
2019-03-29T10:29:59.730Z,4.10
2019-03-29T10:32:29.041Z,4.00
2019-03-29T10:34:58.250Z,4.00
2019-03-29T10:37:27.446Z,5.00
2019-03-29T10:39:56.761Z,5.13
2019-03-29T10:42:26.026Z,5.57
2019-03-29T10:44:55.434Z,5.33
2019-03-29T10:47:42.059Z,5.90
2019-03-29T10:49:55.834Z,5.93
2019-03-29T10:52:25.065Z,5.27
2019-03-29T10:54:54.378Z,4.60
2019-03-29T10:57:23.721Z,4.70
2019-03-29T10:59:52.881Z,4.53
2019-03-29T11:02:22.189Z,6.23
2019-03-29T11:04:51.436Z,3.70
2019-03-29T11:07:20.033Z,5.00
2019-03-29T11:09:49.645Z,4.77
2019-03-29T11:12:18.857Z,5.93
2019-03-29T11:14:48.041Z,5.37
2019-03-29T11:17:17.327Z,5.20
2019-03-29T11:19:46.670Z,5.47
2019-03-29T11:22:15.931Z,6.10
2019-03-29T11:24:45.229Z,5.50
2019-03-29T11:27:13.785Z,4.83
2019-03-29T11:29:43.030Z,4.73
2019-03-29T11:32:12.523Z,4.80
2019-03-29T11:34:41.833Z,4.60
2019-03-29T11:37:11.570Z,4.90
2019-03-29T11:39:40.809Z,5.60
2019-03-29T11:42:10.021Z,5.30
2019-03-29T11:44:39.221Z,5.33
2019-03-29T11:47:08.536Z,6.30
2019-03-29T11:49:37.080Z,6.43
2019-03-29T11:52:06.353Z,6.13
2019-03-29T11:54:35.545Z,6.87
2019-03-29T11:57:05.149Z,5.67
2019-03-29T11:59:34.344Z,5.60
2019-03-29T12:02:03.525Z,5.23
2019-03-29T12:04:32.727Z,4.80
2019-03-29T12:07:03.573Z,5.77
2019-03-29T12:09:33.052Z,5.87
2019-03-29T12:12:01.616Z,6.17
2019-03-29T12:14:31.077Z,5.70
2019-03-29T12:17:00.274Z,5.33
2019-03-29T12:19:29.470Z,4.77
2019-03-29T12:21:59.018Z,6.10
2019-03-29T12:24:28.215Z,5.43
2019-03-29T12:26:57.425Z,6.40
2019-03-29T12:29:26.759Z,6.00
2019-03-29T12:31:55.399Z,5.73
2019-03-29T12:34:24.636Z,5.40
2019-03-29T12:36:53.865Z,4.60
2019-03-29T12:39:23.134Z,5.97
2019-03-29T12:41:52.346Z,5.40
2019-03-29T12:44:21.614Z,6.10
2019-03-29T12:46:50.913Z,6.60
2019-03-29T12:49:20.108Z,5.80
2019-03-29T12:51:49.290Z,6.20
2019-03-29T12:54:17.877Z,5.60
2019-03-29T12:56:47.175Z,6.40
2019-03-29T12:59:16.661Z,6.70
2019-03-29T13:01:45.858Z,7.00
2019-03-29T13:04:15.136Z,6.50
2019-03-29T13:06:44.316Z,5.70
2019-03-29T13:09:13.509Z,6.13
2019-03-29T13:11:43.220Z,6.40
2019-03-29T13:14:12.411Z,6.00
2019-03-29T13:16:41.666Z,5.10
2019-03-29T13:19:10.871Z,6.27
2019-03-29T13:21:40.386Z,5.73
2019-03-29T13:24:10.056Z,6.50
2019-03-29T13:26:40.409Z,5.90
2019-03-29T13:29:09.648Z,6.40
2019-03-29T13:31:38.843Z,6.80
2019-03-29T13:34:08.423Z,6.13
2019-03-29T13:36:37.613Z,6.47
2019-03-29T13:39:06.158Z,6.33
2019-03-29T13:41:35.401Z,6.23
2019-03-29T13:44:04.695Z,6.20
2019-03-29T13:46:33.942Z,6.30
2019-03-29T13:49:03.213Z,6.37
2019-03-29T13:51:33.647Z,7.27
2019-03-29T13:54:02.929Z,6.90
2019-03-29T13:56:32.301Z,7.00
2019-03-29T13:59:02.360Z,6.10
2019-03-29T14:01:31.646Z,7.20
2019-03-29T14:04:00.977Z,7.20
2019-03-29T14:06:30.246Z,6.67
2019-03-29T14:08:59.437Z,6.40
2019-03-29T14:11:28.982Z,6.40
2019-03-29T14:13:58.193Z,5.80
2019-03-29T14:16:27.374Z,5.80
2019-03-29T14:18:56.573Z,6.67
2019-03-29T14:21:25.292Z,5.10
2019-03-29T14:23:54.524Z,6.80
2019-03-29T14:26:23.737Z,5.90
2019-03-29T14:28:53.041Z,6.47
2019-03-29T14:31:22.248Z,6.77
2019-03-29T14:33:51.525Z,7.10
2019-03-29T14:36:21.259Z,6.30
2019-03-29T14:38:50.560Z,6.87
2019-03-29T14:41:19.905Z,6.43
2019-03-29T14:43:48.517Z,5.50
2019-03-29T14:46:17.822Z,6.50
2019-03-29T14:48:47.150Z,6.70
2019-03-29T14:51:16.450Z,6.43
2019-03-29T14:53:45.718Z,6.40
2019-03-29T14:56:14.961Z,6.37
2019-03-29T14:58:44.201Z,5.80
2019-03-29T15:01:14.256Z,8.30
2019-03-29T15:03:43.543Z,7.17
2019-03-29T15:06:12.080Z,6.90
2019-03-29T15:08:41.265Z,7.23
2019-03-29T15:11:21.714Z,5.50
2019-03-29T15:13:41.469Z,6.43
2019-03-29T15:16:10.667Z,7.10
2019-03-29T15:18:39.889Z,6.50
2019-03-29T15:21:10.522Z,5.93
2019-03-29T15:23:39.975Z,6.73
2019-03-29T15:26:09.158Z,5.83
2019-03-29T15:28:37.755Z,6.93
2019-03-29T15:31:06.994Z,6.67
2019-03-29T15:33:36.254Z,7.17
2019-03-29T15:36:05.455Z,7.03
2019-03-29T15:38:34.681Z,7.60
2019-03-29T15:41:03.944Z,6.50
2019-03-29T15:43:33.268Z,6.67
2019-03-29T15:46:02.645Z,7.17
2019-03-29T15:48:31.953Z,6.33
2019-03-29T15:51:00.540Z,7.07
2019-03-29T15:53:30.909Z,7.57
2019-03-29T15:56:00.121Z,8.30
2019-03-29T15:58:29.380Z,7.40
2019-03-29T16:00:58.561Z,7.90
2019-03-29T16:03:27.855Z,7.47
2019-03-29T16:05:57.497Z,9.07
2019-03-29T16:08:26.777Z,8.40
2019-03-29T16:10:55.376Z,7.83
2019-03-29T16:13:24.225Z,8.10
2019-03-29T16:15:53.395Z,8.90
2019-03-29T16:18:22.596Z,8.43
2019-03-29T16:20:51.780Z,9.27
2019-03-29T16:23:21.081Z,10.90
2019-03-29T16:25:50.316Z,8.90
2019-03-29T16:28:19.560Z,9.20
2019-03-29T16:30:48.890Z,8.70
2019-03-29T16:33:17.595Z,8.47
2019-03-29T16:35:46.814Z,8.80
2019-03-29T16:38:16.170Z,9.73
2019-03-29T16:40:45.437Z,10.00
2019-03-29T16:43:20.665Z,8.53
2019-03-29T16:45:49.992Z,9.93
2019-03-29T16:48:19.297Z,8.97
2019-03-29T16:50:48.842Z,9.97
2019-03-29T16:53:18.318Z,9.37
2019-03-29T16:55:47.562Z,10.00
2019-03-29T16:58:16.811Z,10.20
2019-03-29T17:00:46.050Z,9.70
2019-03-29T17:03:15.465Z,9.37
2019-03-29T17:05:44.792Z,9.30
2019-03-29T17:08:14.084Z,10.50
2019-03-29T17:10:43.364Z,9.37
2019-03-29T17:13:12.757Z,10.37
2019-03-29T17:15:41.633Z,9.70
2019-03-29T17:18:10.842Z,10.67
2019-03-29T17:20:40.029Z,10.17
2019-03-29T17:23:09.722Z,10.53
2019-03-29T17:25:38.959Z,9.50
2019-03-29T17:28:08.436Z,8.50
2019-03-29T17:30:48.681Z,9.90
2019-03-29T17:33:17.895Z,9.57
2019-03-29T17:35:47.128Z,10.53
2019-03-29T17:38:16.354Z,9.67
2019-03-29T17:40:44.901Z,10.37
2019-03-29T17:43:14.184Z,10.63
2019-03-29T17:45:43.414Z,10.70
2019-03-29T17:48:12.717Z,11.17
2019-03-29T17:50:41.992Z,10.60
2019-03-29T17:53:11.275Z,10.17
2019-03-29T17:55:40.634Z,10.40
2019-03-29T17:58:09.860Z,11.23
2019-03-29T18:00:38.475Z,12.60
2019-03-29T18:03:07.065Z,13.77
2019-03-29T18:05:36.690Z,12.53
2019-03-29T18:08:05.880Z,11.47
2019-03-29T18:10:35.111Z,12.40
2019-03-29T18:13:04.621Z,11.20
2019-03-29T18:15:33.879Z,14.00
2019-03-29T18:18:03.166Z,14.80
2019-03-29T18:20:32.361Z,14.33
2019-03-29T18:23:00.903Z,14.43
2019-03-29T18:25:30.096Z,13.23
2019-03-29T18:27:59.301Z,13.83
2019-03-29T18:30:46.689Z,12.57
2019-03-29T18:33:16.134Z,12.90
2019-03-29T18:35:45.373Z,12.63
2019-03-29T18:38:14.562Z,13.53
2019-03-29T18:40:46.173Z,13.80
2019-03-29T18:43:15.576Z,12.57
2019-03-29T18:45:44.864Z,11.47
2019-03-29T18:48:13.587Z,11.73
2019-03-29T18:50:42.855Z,12.07
2019-03-29T18:53:12.118Z,12.87
2019-03-29T18:55:41.350Z,10.63
2019-03-29T18:58:10.642Z,11.20
2019-03-29T19:00:39.971Z,11.97
2019-03-29T19:03:11.781Z,12.50
2019-03-29T19:05:40.148Z,13.17
2019-03-29T19:08:08.692Z,11.60
2019-03-29T19:10:37.942Z,11.97
2019-03-29T19:13:07.221Z,12.07
2019-03-29T19:15:36.716Z,13.83
2019-03-29T19:18:05.938Z,13.03
2019-03-29T19:20:35.238Z,11.70
2019-03-29T19:23:04.536Z,12.60
2019-03-29T19:25:33.847Z,13.30
2019-03-29T19:28:03.159Z,10.93
2019-03-29T19:30:31.708Z,12.40
2019-03-29T19:33:01.026Z,14.17
2019-03-29T19:35:30.342Z,16.37
2019-03-29T19:37:59.951Z,16.20
2019-03-29T19:40:29.173Z,13.47
2019-03-29T19:42:58.449Z,15.23
2019-03-29T19:45:27.728Z,14.13
2019-03-29T19:47:57.083Z,15.50
2019-03-29T19:50:26.386Z,12.77
2019-03-29T19:52:55.350Z,13.60
2019-03-29T19:55:24.625Z,13.40
2019-03-29T19:57:53.976Z,12.60
2019-03-29T20:00:36.207Z,12.70
2019-03-29T20:03:05.840Z,13.50
2019-03-29T20:05:35.287Z,13.00
2019-03-29T20:08:04.520Z,13.50
2019-03-29T20:10:34.184Z,11.67
2019-03-29T20:13:03.555Z,12.47
2019-03-29T20:15:32.173Z,11.83
2019-03-29T20:18:01.445Z,14.00
2019-03-29T20:20:31.126Z,14.10
2019-03-29T20:23:00.316Z,13.03
2019-03-29T20:25:29.526Z,14.33
2019-03-29T20:27:58.930Z,14.70
2019-03-29T20:30:28.195Z,11.60
2019-03-29T20:32:57.476Z,13.87
2019-03-29T20:35:26.755Z,12.87
2019-03-29T20:37:55.409Z,11.33
2019-03-29T20:40:24.748Z,12.23
2019-03-29T20:42:54.357Z,11.90
2019-03-29T20:45:23.608Z,11.23
2019-03-29T20:47:52.815Z,10.73
2019-03-29T20:50:22.081Z,11.23
2019-03-29T20:52:51.318Z,11.23
2019-03-29T20:55:20.614Z,10.90
2019-03-29T20:57:49.816Z,9.43
2019-03-29T21:00:18.371Z,11.93
2019-03-29T21:02:47.625Z,11.77
2019-03-29T21:05:16.901Z,12.10
2019-03-29T21:07:46.189Z,10.80
2019-03-29T21:10:15.644Z,10.77
2019-03-29T21:12:45.206Z,9.83
2019-03-29T21:15:14.737Z,11.20
2019-03-29T21:17:55.854Z,11.90
2019-03-29T21:20:15.638Z,10.83
2019-03-29T21:22:44.198Z,11.03
2019-03-29T21:25:13.728Z,10.30
2019-03-29T21:27:42.942Z,13.27
2019-03-29T21:30:12.167Z,12.47
2019-03-29T21:32:41.381Z,12.70
2019-03-29T21:35:10.672Z,12.13
2019-03-29T21:37:39.870Z,12.13
2019-03-29T21:40:09.227Z,12.10
2019-03-29T21:42:38.541Z,10.23
2019-03-29T21:45:07.344Z,12.30
2019-03-29T21:47:36.587Z,11.60
2019-03-29T21:50:06.670Z,12.17
2019-03-29T21:52:36.053Z,11.23
2019-03-29T21:55:05.692Z,10.83
2019-03-29T21:57:34.984Z,11.33
2019-03-29T22:00:05.490Z,13.20
2019-03-29T22:02:34.805Z,11.37
2019-03-29T22:05:03.435Z,11.10
2019-03-29T22:07:32.681Z,13.40
2019-03-29T22:10:01.881Z,13.97
2019-03-29T22:12:31.180Z,14.73
2019-03-29T22:15:00.598Z,13.97
2019-03-29T22:17:29.902Z,12.70
2019-03-29T22:19:59.165Z,12.57
2019-03-29T22:22:28.369Z,12.73
2019-03-29T22:24:57.829Z,10.80
2019-03-29T22:27:26.460Z,13.40
2019-03-29T22:29:55.755Z,12.30
2019-03-29T22:32:25.312Z,11.93
2019-03-29T22:34:54.895Z,13.27
2019-03-29T22:37:24.221Z,11.90
2019-03-29T22:39:53.445Z,12.80
2019-03-29T22:42:22.681Z,13.73
2019-03-29T22:44:52.013Z,12.80
2019-03-29T22:47:21.713Z,10.83
2019-03-29T22:49:50.373Z,11.70
2019-03-29T22:52:19.663Z,12.60
2019-03-29T22:54:48.964Z,11.47
2019-03-29T22:57:18.210Z,11.70
2019-03-29T22:59:47.257Z,12.53
2019-03-29T23:02:16.908Z,12.03
2019-03-29T23:04:46.105Z,11.93
2019-03-29T23:07:15.348Z,12.10
2019-03-29T23:09:43.937Z,10.80
2019-03-29T23:12:13.568Z,12.47
2019-03-29T23:14:42.832Z,13.57
2019-03-29T23:17:12.072Z,13.23
2019-03-29T23:19:40.873Z,13.33
2019-03-29T23:22:10.085Z,12.60
2019-03-29T23:24:39.296Z,12.20
2019-03-29T23:27:08.500Z,12.60
2019-03-29T23:29:37.739Z,12.07
2019-03-29T23:32:06.357Z,12.43
2019-03-29T23:34:35.548Z,12.67
2019-03-29T23:37:04.825Z,14.67
2019-03-29T23:39:34.123Z,13.13
2019-03-29T23:42:03.450Z,11.67
2019-03-29T23:44:32.752Z,12.50
2019-03-29T23:47:02.057Z,13.20
2019-03-29T23:49:31.527Z,13.13
2019-03-29T23:52:01.140Z,13.40
2019-03-29T23:54:29.743Z,14.17
2019-03-29T23:56:59.060Z,13.57
2019-03-29T23:59:28.303Z,13.67
